Time;durP1;ratioP1;P1;durP2;ratioP2;P2;SDS_P1;SDS_P2;PMS_P1;PMS_P2;Temp;Humidity;BMP_temperature;BMP_pressure;BME280_temperature;BME280_humidity;BME280_pressure;Samples;Min_cycle;Max_cycle;Signal;HPM_P1;HPM_P2
2023/01/22 00:02:19;;;;;;;3.13;1.38;;;;;;;8.64;100.00;98050.44;5052480;28;20177;-61
2023/01/22 00:04:45;;;;;;;1.52;1.40;;;;;;;9.03;100.00;98104.53;5052512;28;20291;-61
2023/01/22 00:07:11;;;;;;;2.55;1.20;;;;;;;8.73;100.00;98054.19;5052345;28;20231;-61
2023/01/22 00:09:37;;;;;;;6.47;3.70;;;;;;;9.09;100.00;98103.31;5052945;28;20182;-61
2023/01/22 00:12:02;;;;;;;8.75;4.70;;;;;;;9.16;100.00;98128.59;5052372;28;20691;-62
2023/01/22 00:14:28;;;;;;;14.57;8.55;;;;;;;8.90;100.00;98085.63;5052839;28;20225;-61
2023/01/22 00:16:53;;;;;;;15.07;9.65;;;;;;;8.96;100.00;98080.06;5052272;28;20667;-61
2023/01/22 00:19:19;;;;;;;16.20;9.77;;;;;;;9.24;100.00;98115.16;5052149;28;20178;-61
2023/01/22 00:21:44;;;;;;;16.20;9.18;;;;;;;8.91;100.00;98076.97;5052749;28;20173;-61
2023/01/22 00:24:10;;;;;;;4.18;3.65;;;;;;;9.21;100.00;98099.88;5052266;28;20182;-61
2023/01/22 00:26:35;;;;;;;5.22;1.70;;;;;;;8.97;100.00;98068.00;5052992;28;20177;-61
2023/01/22 00:29:02;;;;;;;1.90;0.98;;;;;;;9.19;100.00;98120.63;5052147;28;20178;-61
2023/01/22 00:31:27;;;;;;;1.20;1.10;;;;;;;9.30;100.00;98125.06;5052088;28;20185;-61
2023/01/22 00:33:52;;;;;;;1.48;1.38;;;;;;;9.31;100.00;98132.72;5052228;28;20173;-61
2023/01/22 00:36:21;;;;;;;4.45;2.42;;;;;;;9.34;100.00;98153.16;5054562;28;20692;-61
2023/01/22 00:38:47;;;;;;;13.57;7.78;;;;;;;9.27;100.00;98145.94;5056199;28;20609;-61
2023/01/22 00:41:13;;;;;;;17.15;10.25;;;;;;;9.29;100.00;98160.41;5056088;28;20189;-61
2023/01/22 00:43:39;;;;;;;18.92;11.65;;;;;;;9.15;100.00;98132.09;5056132;28;20182;-61
2023/01/22 00:46:06;;;;;;;24.55;12.90;;;;;;;9.10;100.00;98123.81;5056307;28;20532;-61
2023/01/22 00:48:32;;;;;;;18.35;11.93;;;;;;;8.97;100.00;98119.59;5056568;28;20197;-61
2023/01/22 00:50:57;;;;;;;18.20;10.10;;;;;;;9.12;100.00;98152.13;5056016;28;20174;-61
2023/01/22 00:53:26;;;;;;;17.77;11.07;;;;;;;8.91;100.00;98107.13;5056001;28;20178;-61
2023/01/22 00:55:51;;;;;;;18.50;10.13;;;;;;;9.25;100.00;98155.53;5056203;28;20178;-61
2023/01/22 00:58:17;;;;;;;19.77;10.50;;;;;;;9.04;100.00;98134.56;5055883;28;20651;-61
2023/01/22 01:00:43;;;;;;;19.63;11.90;;;;;;;8.89;100.00;98098.63;5056467;28;20189;-61
2023/01/22 01:03:26;;;;;;;16.30;10.15;;;;;;;9.19;100.00;98150.78;5055770;28;20633;-61
2023/01/22 01:05:56;;;;;;;17.33;10.75;;;;;;;8.79;100.00;98093.25;5056001;28;20166;-61
2023/01/22 01:08:23;;;;;;;18.73;12.20;;;;;;;9.07;100.00;98143.84;5055958;28;20166;-61
2023/01/22 01:11:00;;;;;;;22.60;14.30;;;;;;;9.12;100.00;98168.44;5055638;28;20186;-61
2023/01/22 01:13:27;;;;;;;27.73;14.63;;;;;;;9.17;100.00;98186.19;5055886;28;20632;-61
2023/01/22 01:16:01;;;;;;;23.77;15.35;;;;;;;8.98;100.00;98155.59;5055537;28;20201;-61
2023/01/22 01:18:26;;;;;;;28.10;16.42;;;;;;;9.04;100.00;98165.53;5055243;28;20255;-61
2023/01/22 01:20:54;;;;;;;28.00;14.80;;;;;;;9.11;100.00;98196.91;5055334;28;20680;-61
2023/01/22 01:23:19;;;;;;;27.00;14.68;;;;;;;8.99;100.00;98154.69;5055666;28;20644;-61
2023/01/22 01:25:44;;;;;;;19.15;10.75;;;;;;;9.31;100.00;98184.34;5055292;28;20260;-61
2023/01/22 01:28:10;;;;;;;18.67;10.73;;;;;;;9.23;100.00;98186.63;5054849;28;20261;-61
2023/01/22 01:30:35;;;;;;;19.35;12.45;;;;;;;9.25;100.00;98194.25;5055210;28;20255;-62
2023/01/22 01:33:00;;;;;;;19.90;12.80;;;;;;;9.06;100.00;98192.06;5055471;28;20269;-61
2023/01/22 01:35:26;;;;;;;18.30;12.18;;;;;;;8.92;100.00;98184.38;5055186;28;20256;-61
2023/01/22 01:37:52;;;;;;;18.42;11.93;;;;;;;8.66;100.00;98143.16;5055650;28;20193;-61
2023/01/22 01:40:17;;;;;;;21.63;11.30;;;;;;;8.52;100.00;98123.47;5054999;28;20272;-61
2023/01/22 01:42:44;;;;;;;17.25;11.55;;;;;;;9.01;100.00;98194.13;5055783;28;20265;-61
2023/01/22 01:45:30;;;;;;;21.55;11.48;;;;;;;9.15;100.00;98214.69;5055243;28;20182;-61
2023/01/22 01:48:27;;;;;;;18.65;10.70;;;;;;;8.87;100.00;98171.00;5053356;28;20636;-61
2023/01/22 01:51:03;;;;;;;21.23;12.02;;;;;;;9.09;100.00;98204.75;5054875;28;20169;-61
2023/01/22 01:53:28;;;;;;;22.75;11.85;;;;;;;9.21;100.00;98221.22;5053957;28;20175;-62
2023/01/22 01:55:56;;;;;;;18.55;10.45;;;;;;;8.90;100.00;98173.34;5055078;28;20177;-61
2023/01/22 01:58:25;;;;;;;15.05;10.43;;;;;;;8.97;100.00;98184.91;5054755;28;20182;-62
2023/01/22 02:00:56;;;;;;;15.63;9.98;;;;;;;8.99;100.00;98208.06;5032460;28;20226;-61
2023/01/22 02:03:22;;;;;;;16.45;9.52;;;;;;;8.92;100.00;98211.97;5032642;28;20707;-61
2023/01/22 02:05:47;;;;;;;18.40;9.98;;;;;;;8.67;100.00;98179.19;5032663;28;20195;-62
2023/01/22 02:08:13;;;;;;;15.75;9.85;;;;;;;8.70;100.00;98183.31;5032316;28;20566;-62
2023/01/22 02:10:39;;;;;;;16.42;9.77;;;;;;;9.10;100.00;98227.06;5032344;28;20724;-61
2023/01/22 02:13:14;;;;;;;16.33;10.43;;;;;;;8.95;100.00;98176.47;5032234;28;20183;-61
2023/01/22 02:15:41;;;;;;;17.35;10.57;;;;;;;8.89;100.00;98166.53;5032615;28;20657;-61
2023/01/22 02:18:06;;;;;;;13.82;9.27;;;;;;;8.94;100.00;98179.97;5032642;28;20288;-61
2023/01/22 02:20:34;;;;;;;13.25;9.02;;;;;;;8.88;100.00;98180.38;5032321;28;20724;-61
2023/01/22 02:22:59;;;;;;;15.25;9.85;;;;;;;9.00;100.00;98178.72;5032336;28;20240;-62
2023/01/22 02:25:25;;;;;;;17.85;10.05;;;;;;;9.27;100.00;98216.44;5031988;28;20182;-61
2023/01/22 02:27:50;;;;;;;17.00;10.27;;;;;;;9.04;100.00;98170.69;5031932;28;20178;-62
2023/01/22 02:30:16;;;;;;;17.40;10.30;;;;;;;9.32;100.00;98222.13;5031923;28;20183;-61
2023/01/22 02:32:41;;;;;;;19.65;11.55;;;;;;;9.30;100.00;98218.84;5051516;28;20259;-62
2023/01/22 02:35:07;;;;;;;25.17;13.80;;;;;;;9.04;100.00;98175.84;5054853;28;20179;-62
2023/01/22 02:37:32;;;;;;;29.08;16.08;;;;;;;9.02;100.00;98185.44;5054593;28;20193;-61
2023/01/22 02:39:58;;;;;;;24.58;14.70;;;;;;;8.74;100.00;98159.78;5053881;28;20193;-61
2023/01/22 02:42:26;;;;;;;22.88;15.98;;;;;;;9.00;100.00;98202.78;5054721;28;20206;-61
2023/01/22 02:44:52;;;;;;;33.45;18.70;;;;;;;8.75;100.00;98173.53;5053893;28;20177;-62
2023/01/22 02:47:18;;;;;;;26.88;15.43;;;;;;;8.98;100.00;98196.88;5053438;28;20571;-62
2023/01/22 02:49:43;;;;;;;24.88;15.45;;;;;;;9.26;100.00;98240.63;5053760;28;20178;-61
2023/01/22 02:52:09;;;;;;;26.55;15.23;;;;;;;8.81;100.00;98155.91;5053454;28;20205;-61
2023/01/22 02:54:34;;;;;;;23.67;14.13;;;;;;;8.95;100.00;98163.56;5053646;28;20565;-62
2023/01/22 02:56:59;;;;;;;25.55;15.77;;;;;;;8.87;100.00;98131.47;5053959;28;20235;-61
2023/01/22 02:59:25;;;;;;;25.70;14.98;;;;;;;8.73;100.00;98114.31;5053000;28;20166;-61
2023/01/22 03:01:50;;;;;;;28.25;15.52;;;;;;;8.76;100.00;98139.91;5054037;28;20235;-61
2023/01/22 03:04:16;;;;;;;25.23;13.30;;;;;;;9.13;100.00;98195.06;5053527;28;20611;-61
2023/01/22 03:06:44;;;;;;;19.50;13.07;;;;;;;8.99;100.00;98172.75;5053444;28;20189;-61
2023/01/22 03:09:12;;;;;;;22.77;13.90;;;;;;;9.32;100.00;98222.13;5053347;28;20173;-61
2023/01/22 03:11:40;;;;;;;22.25;13.35;;;;;;;9.31;100.00;98230.00;5053353;28;20243;-61
2023/01/22 03:22:18;;;;;;;7.32;5.78;;;;;;;9.00;100.00;98184.75;5053747;28;20535;-62
2023/01/22 03:24:49;;;;;;;18.33;6.60;;;;;;;8.86;100.00;98174.47;5053038;28;20181;-61
2023/01/22 03:27:16;;;;;;;7.35;4.82;;;;;;;9.07;100.00;98245.34;5053070;28;20166;-61
2023/01/22 03:29:41;;;;;;;6.53;3.47;;;;;;;9.00;100.00;98220.84;5053327;28;20628;-61
2023/01/22 03:32:07;;;;;;;6.30;3.50;;;;;;;8.76;100.00;98196.66;5052896;28;20193;-62
2023/01/22 03:34:32;;;;;;;8.57;4.40;;;;;;;8.87;100.00;98193.38;5052903;28;20178;-61
2023/01/22 03:36:58;;;;;;;10.35;7.20;;;;;;;9.11;100.00;98241.63;5053038;28;20189;-62
2023/01/22 03:39:25;;;;;;;12.50;8.27;;;;;;;8.74;100.00;98189.94;5052847;28;20184;-61
2023/01/22 03:41:51;;;;;;;11.77;7.45;;;;;;;9.05;100.00;98234.28;5052661;28;20209;-62
2023/01/22 03:44:16;;;;;;;11.52;6.93;;;;;;;9.02;100.00;98231.91;5053272;28;20217;-62
2023/01/22 03:46:41;;;;;;;13.25;8.27;;;;;;;9.20;100.00;98235.03;5053222;28;20546;-61
2023/01/22 03:49:08;;;;;;;8.63;4.22;;;;;;;8.90;100.00;98198.31;5052925;28;20647;-61
2023/01/22 03:51:34;;;;;;;5.50;3.78;;;;;;;8.82;100.00;98192.84;5052638;28;20186;-61
2023/01/22 03:54:00;;;;;;;2.83;2.20;;;;;;;9.19;100.00;98230.78;5052598;28;20185;-61
2023/01/22 03:56:26;;;;;;;2.10;1.60;;;;;;;9.23;100.00;98233.09;5052622;28;20213;-62
2023/01/22 03:58:52;;;;;;;4.15;2.30;;;;;;;8.92;100.00;98196.47;5052175;28;20555;-61
2023/01/22 04:01:24;;;;;;;4.03;2.05;;;;;;;9.21;100.00;98253.00;5052653;28;20193;-62
2023/01/22 04:03:51;;;;;;;2.97;1.85;;;;;;;9.14;100.00;98233.69;5053014;28;20177;-61
2023/01/22 04:06:17;;;;;;;6.20;4.75;;;;;;;8.91;100.00;98211.13;5052635;28;20541;-62
2023/01/22 04:08:44;;;;;;;2.80;2.40;;;;;;;9.12;100.00;98245.88;5052377;28;20668;-62
2023/01/22 04:11:10;;;;;;;3.47;1.90;;;;;;;8.99;100.00;98224.38;5051439;28;20184;-62
2023/01/22 04:13:38;;;;;;;21.58;11.70;;;;;;;9.06;100.00;98233.34;5052294;28;20193;-61
2023/01/22 04:16:03;;;;;;;19.05;12.25;;;;;;;9.30;100.00;98283.38;5053144;28;20183;-61
2023/01/22 04:18:29;;;;;;;24.98;15.63;;;;;;;9.16;100.00;98255.06;5052049;28;20261;-62
2023/01/22 04:20:54;;;;;;;29.50;17.73;;;;;;;9.42;100.00;98300.66;5052723;28;20659;-61
2023/01/22 04:23:20;;;;;;;31.70;16.35;;;;;;;9.40;100.00;98299.94;5053022;28;20185;-62
2023/01/22 04:25:46;;;;;;;27.35;17.70;;;;;;;9.00;100.00;98256.97;5052166;28;20662;-61
2023/01/22 04:28:13;;;;;;;28.42;16.15;;;;;;;9.26;100.00;98312.91;5052476;28;20182;-61
2023/01/22 04:30:39;;;;;;;27.70;16.65;;;;;;;9.22;100.00;98308.03;5052408;28;20227;-62
2023/01/22 04:33:05;;;;;;;27.88;16.75;;;;;;;9.15;100.00;98299.03;5052152;28;20256;-62
2023/01/22 04:35:31;;;;;;;29.15;17.67;;;;;;;9.19;100.00;98287.56;5052062;28;20201;-61
2023/01/22 04:37:57;;;;;;;27.77;16.48;;;;;;;9.34;100.00;98315.81;5052380;28;20178;-62
2023/01/22 04:40:25;;;;;;;26.73;15.40;;;;;;;9.28;100.00;98302.47;5051753;28;20189;-62
2023/01/22 04:42:51;;;;;;;27.95;16.40;;;;;;;9.00;100.00;98262.16;5052407;28;20632;-62
2023/01/22 04:45:17;;;;;;;24.73;16.13;;;;;;;9.27;100.00;98303.41;5052333;28;20226;-62
2023/01/22 04:47:44;;;;;;;27.98;16.95;;;;;;;8.75;100.00;98220.78;5052012;28;20276;-62
2023/01/22 04:50:29;;;;;;;24.35;15.70;;;;;;;8.91;100.00;98254.97;5051955;28;20192;-61
2023/01/22 04:52:55;;;;;;;25.80;15.48;;;;;;;8.96;100.00;98265.84;5051661;28;20691;-61
2023/01/22 04:55:22;;;;;;;31.90;18.77;;;;;;;9.18;100.00;98312.56;5051927;28;20185;-62
2023/01/22 04:57:48;;;;;;;37.95;22.70;;;;;;;8.90;100.00;98286.88;5051854;28;20189;-62
2023/01/22 05:00:14;;;;;;;30.85;19.13;;;;;;;8.93;100.00;98291.84;5051524;28;20198;-62
2023/01/22 05:02:39;;;;;;;30.00;18.77;;;;;;;9.18;100.00;98346.13;5052462;28;20228;-62
2023/01/22 05:05:07;;;;;;;41.95;21.83;;;;;;;9.21;100.00;98353.66;5051799;28;20186;-62
2023/01/22 05:07:33;;;;;;;35.35;20.75;;;;;;;9.20;100.00;98367.50;5052395;28;20182;-62
2023/01/22 05:09:58;;;;;;;33.95;17.88;;;;;;;8.95;100.00;98315.78;5051831;28;20535;-62
2023/01/22 05:12:24;;;;;;;23.23;15.82;;;;;;;9.17;100.00;98352.22;5051784;28;20254;-61
2023/01/22 05:14:49;;;;;;;26.50;16.55;;;;;;;9.14;100.00;98347.25;5052062;28;20254;-61
2023/01/22 05:17:15;;;;;;;27.05;16.50;;;;;;;8.85;100.00;98306.16;5051731;28;20185;-61
2023/01/22 05:19:40;;;;;;;24.63;14.55;;;;;;;9.17;100.00;98361.72;5051655;28;20235;-62
2023/01/22 05:22:06;;;;;;;20.70;12.52;;;;;;;8.69;100.00;98288.22;5054018;28;20317;-62
2023/01/22 05:24:31;;;;;;;18.83;11.52;;;;;;;9.21;100.00;98379.47;5055651;28;20178;-62
2023/01/22 05:26:57;;;;;;;20.10;12.02;;;;;;;8.93;100.00;98338.31;5055345;28;20186;-61
2023/01/22 05:29:25;;;;;;;20.27;12.65;;;;;;;9.11;100.00;98360.38;5054968;28;20181;-62
2023/01/22 05:31:56;;;;;;;25.65;17.27;;;;;;;9.31;100.00;98384.91;5055218;28;20185;-62
2023/01/22 05:34:21;;;;;;;29.52;18.65;;;;;;;8.76;100.00;98307.56;5054885;28;20268;-62
2023/01/22 05:36:47;;;;;;;24.63;15.27;;;;;;;9.34;100.00;98413.09;5055039;28;20324;-61
2023/01/22 05:39:13;;;;;;;29.40;19.00;;;;;;;9.24;100.00;98405.13;5055125;28;20205;-62
2023/01/22 05:41:39;;;;;;;33.55;21.10;;;;;;;9.34;100.00;98406.19;5055029;28;20189;-62
2023/01/22 05:44:05;;;;;;;36.13;19.67;;;;;;;9.06;100.00;98370.13;5055339;28;20193;-62
2023/01/22 05:46:31;;;;;;;29.70;18.52;;;;;;;9.31;100.00;98405.56;5055233;28;20178;-62
2023/01/22 05:48:57;;;;;;;30.25;18.35;;;;;;;8.98;100.00;98343.16;5054883;28;20182;-62
2023/01/22 05:51:23;;;;;;;29.90;17.70;;;;;;;9.02;100.00;98355.75;5055711;28;20577;-62
2023/01/22 05:53:49;;;;;;;29.42;17.27;;;;;;;9.24;100.00;98389.63;5072582;28;20585;-61
2023/01/22 05:56:15;;;;;;;31.10;17.98;;;;;;;9.12;100.00;98359.44;5072562;28;20759;-62
2023/01/22 05:58:40;;;;;;;33.55;18.08;;;;;;;9.04;100.00;98364.22;5032542;28;20186;-62
2023/01/22 06:01:06;;;;;;;27.67;16.23;;;;;;;9.04;100.00;98351.31;5032620;28;20198;-62
2023/01/22 06:03:31;;;;;;;29.20;18.77;;;;;;;9.41;100.00;98407.47;5032574;28;20265;-62
2023/01/22 06:06:04;;;;;;;32.20;18.60;;;;;;;9.09;100.00;98369.13;5032829;28;20274;-62
2023/01/22 06:08:31;;;;;;;51.13;27.33;;;;;;;8.95;100.00;98354.50;5032553;28;20200;-62
2023/01/22 06:11:05;;;;;;;46.55;23.65;;;;;;;9.00;100.00;98369.69;5032216;28;20228;-62
2023/01/22 06:13:31;;;;;;;38.53;22.08;;;;;;;9.28;100.00;98419.50;5032990;28;20280;-61
2023/01/22 06:15:57;;;;;;;34.97;19.65;;;;;;;8.96;100.00;98363.91;5032982;28;20304;-62
2023/01/22 06:18:23;;;;;;;36.83;22.33;;;;;;;9.02;100.00;98399.63;5032347;28;20310;-62
2023/01/22 06:20:49;;;;;;;24.13;15.40;;;;;;;8.86;100.00;98404.09;5031950;28;20289;-62
2023/01/22 06:23:15;;;;;;;26.83;16.25;;;;;;;9.11;100.00;98444.69;5032536;28;20186;-61
2023/01/22 06:25:41;;;;;;;31.98;18.38;;;;;;;9.19;100.00;98458.78;5032740;28;20190;-61
2023/01/22 06:28:07;;;;;;;33.28;18.95;;;;;;;8.94;100.00;98406.19;5031879;28;20221;-62
2023/01/22 06:30:32;;;;;;;27.67;16.77;;;;;;;9.20;100.00;98455.28;5062894;28;20190;-62
2023/01/22 06:32:58;;;;;;;25.42;17.70;;;;;;;9.21;100.00;98469.81;5053076;28;20236;-62
2023/01/22 06:35:23;;;;;;;26.77;17.30;;;;;;;9.13;100.00;98459.16;5054492;28;20177;-62
2023/01/22 06:37:49;;;;;;;22.08;16.05;;;;;;;9.06;100.00;98462.22;5054361;28;20684;-62
2023/01/22 06:40:14;;;;;;;26.40;15.65;;;;;;;8.80;100.00;98430.25;5053943;28;20209;-62
2023/01/22 06:42:40;;;;;;;25.98;15.95;;;;;;;9.10;100.00;98481.75;5031798;28;20647;-62
2023/01/22 06:45:06;;;;;;;25.08;15.90;;;;;;;9.12;100.00;98472.16;5031702;28;20186;-62
2023/01/22 06:47:32;;;;;;;37.63;17.33;;;;;;;8.96;100.00;98437.91;5031684;28;20281;-62
2023/01/22 06:49:57;;;;;;;25.23;15.63;;;;;;;8.85;100.00;98428.22;5031807;28;20333;-62
2023/01/22 06:52:23;;;;;;;20.77;14.73;;;;;;;8.93;100.00;98441.50;5031596;28;20190;-62
2023/01/22 06:54:48;;;;;;;27.20;18.65;;;;;;;9.06;100.00;98455.31;5031607;28;20193;-62
2023/01/22 06:57:16;;;;;;;20.90;14.68;;;;;;;9.04;100.00;98451.97;5031490;28;20683;-61
2023/01/22 06:59:41;;;;;;;28.77;19.77;;;;;;;9.24;100.00;98497.22;5031291;28;20203;-61
2023/01/22 07:02:14;;;;;;;24.80;17.05;;;;;;;8.84;100.00;98431.75;5031307;28;20281;-61
2023/01/22 07:04:39;;;;;;;14.60;10.18;;;;;;;8.95;100.00;98464.63;5031321;28;20190;-62
2023/01/22 07:07:05;;;;;;;14.00;9.68;;;;;;;8.90;100.00;98440.84;5031100;28;20677;-61
2023/01/22 07:09:30;;;;;;;16.10;8.68;;;;;;;8.99;100.00;98455.78;5031068;28;20209;-61
2023/01/22 07:11:57;;;;;;;13.80;9.32;;;;;;;9.28;100.00;98502.13;5031335;28;20183;-61
2023/01/22 07:14:22;;;;;;;16.80;11.25;;;;;;;9.34;100.00;98504.31;5047231;28;20181;-61
2023/01/22 07:16:48;;;;;;;9.82;5.88;;;;;;;9.34;100.00;98493.97;5053027;28;20192;-61
2023/01/22 07:19:13;;;;;;;16.10;9.45;;;;;;;9.07;100.00;98458.69;5053292;28;20659;-62
2023/01/22 07:21:38;;;;;;;19.27;10.95;;;;;;;9.32;100.00;98495.00;5053072;28;20288;-61
2023/01/22 07:24:04;;;;;;;17.83;11.48;;;;;;;9.26;100.00;98493.59;5052775;28;20621;-61
2023/01/22 07:26:30;;;;;;;21.05;13.32;;;;;;;9.18;100.00;98464.88;5053178;28;20185;-61
2023/01/22 07:28:55;;;;;;;22.58;14.68;;;;;;;9.01;100.00;98418.63;5053116;28;20738;-61
2023/01/22 07:31:20;;;;;;;21.33;14.57;;;;;;;9.47;100.00;98515.53;5053093;28;20186;-62
2023/01/22 07:33:46;;;;;;;33.50;20.42;;;;;;;9.16;100.00;98463.31;5052983;28;20272;-61
2023/01/22 07:36:11;;;;;;;42.47;23.88;;;;;;;9.46;100.00;98519.03;5052798;28;20206;-61
2023/01/22 07:38:37;;;;;;;40.17;23.33;;;;;;;9.37;100.00;98511.03;5052888;28;20184;-62
2023/01/22 07:41:04;;;;;;;39.67;24.80;;;;;;;9.19;100.00;98474.28;5053014;28;20568;-61
2023/01/22 07:43:31;;;;;;;44.25;23.58;;;;;;;9.50;100.00;98530.81;5053093;28;20181;-62
2023/01/22 07:45:59;;;;;;;39.50;20.98;;;;;;;9.29;100.00;98480.53;5053059;28;20182;-61
2023/01/22 07:48:24;;;;;;;33.80;21.13;;;;;;;9.28;100.00;98486.63;5052979;28;20181;-62
2023/01/22 07:50:50;;;;;;;36.92;22.13;;;;;;;9.56;100.00;98540.75;5052942;28;20553;-62
2023/01/22 07:53:16;;;;;;;34.95;20.33;;;;;;;9.51;100.00;98547.16;5052602;28;20647;-62
2023/01/22 07:55:42;;;;;;;46.55;25.65;;;;;;;9.63;100.00;98557.56;5052568;28;20182;-61
2023/01/22 07:58:07;;;;;;;60.47;32.45;;;;;;;9.48;100.00;98531.84;5052348;28;20174;-62
2023/01/22 08:00:34;;;;;;;57.25;33.13;;;;;;;9.38;100.00;98521.25;5052509;28;20620;-62
2023/01/22 08:03:00;;;;;;;59.63;32.63;;;;;;;9.62;100.00;98561.06;5051769;28;20200;-62
2023/01/22 08:05:25;;;;;;;51.30;30.75;;;;;;;9.63;100.00;98563.53;5051810;28;20652;-62
2023/01/22 08:07:51;;;;;;;57.88;31.20;;;;;;;9.40;100.00;98523.75;5051918;28;20257;-61
2023/01/22 08:10:17;;;;;;;51.63;31.48;;;;;;;9.63;100.00;98557.56;5052901;28;20189;-61
2023/01/22 08:12:42;;;;;;;52.15;31.08;;;;;;;9.21;100.00;98481.94;5052344;28;20258;-61
2023/01/22 08:15:10;;;;;;;53.70;34.17;;;;;;;9.56;100.00;98551.09;5053053;28;20186;-62
2023/01/22 08:17:35;;;;;;;55.83;33.15;;;;;;;9.61;100.00;98559.41;5052801;28;20185;-62
2023/01/22 08:20:01;;;;;;;56.53;33.63;;;;;;;9.73;100.00;98574.13;5052447;28;20563;-61
2023/01/22 08:22:27;;;;;;;62.60;35.83;;;;;;;9.70;100.00;98577.72;5052505;28;20196;-61
2023/01/22 08:24:53;;;;;;;68.25;40.15;;;;;;;9.44;100.00;98541.53;5052468;28;20209;-61
2023/01/22 08:27:19;;;;;;;69.40;41.88;;;;;;;9.41;100.00;98531.41;5052202;28;20177;-61
2023/01/22 08:29:44;;;;;;;68.88;41.75;;;;;;;9.48;100.00;98548.19;5052149;28;20236;-62
2023/01/22 08:32:10;;;;;;;77.57;41.40;;;;;;;9.44;100.00;98544.13;5052105;28;20212;-61
2023/01/22 08:34:35;;;;;;;81.63;42.42;;;;;;;9.82;100.00;98609.75;5052446;28;20260;-62
2023/01/22 08:37:01;;;;;;;83.88;44.67;;;;;;;9.51;100.00;98542.84;5051896;28;20189;-62
2023/01/22 08:39:26;;;;;;;76.28;44.00;;;;;;;9.56;100.00;98553.69;5052148;28;20181;-62
2023/01/22 08:41:56;;;;;;;84.25;46.15;;;;;;;9.81;100.00;98608.09;5052047;28;20690;-62
2023/01/22 08:44:21;;;;;;;98.13;49.13;;;;;;;9.61;100.00;98569.72;5052861;28;20251;-61
2023/01/22 08:46:47;;;;;;;83.70;46.75;;;;;;;9.52;100.00;98571.13;5052581;28;20542;-62
2023/01/22 08:49:12;;;;;;;80.35;44.78;;;;;;;9.75;100.00;98603.31;5052010;28;20205;-61
2023/01/22 08:51:38;;;;;;;75.72;43.80;;;;;;;9.53;100.00;98564.22;5052764;28;20177;-61
2023/01/22 08:54:03;;;;;;;76.15;43.83;;;;;;;9.55;100.00;98546.88;5051851;28;20178;-62
2023/01/22 08:56:29;;;;;;;77.45;43.58;;;;;;;9.63;100.00;98556.72;5052485;28;20178;-62
2023/01/22 08:58:58;;;;;;;71.88;43.42;;;;;;;9.72;100.00;98563.91;5056669;28;20196;-61
2023/01/22 09:01:24;;;;;;;84.25;48.05;;;;;;;9.89;100.00;98596.34;5055413;28;20569;-61
2023/01/22 09:03:50;;;;;;;84.40;48.28;;;;;;;9.48;100.00;98506.84;5055723;28;20188;-62
2023/01/22 09:06:15;;;;;;;82.50;46.63;;;;;;;9.84;100.00;98548.44;5055718;28;20173;-61
2023/01/22 09:08:41;;;;;;;133.82;66.70;;;;;;;9.90;100.00;98528.22;5055687;28;20178;-61
2023/01/22 09:11:07;;;;;;;101.40;55.58;;;;;;;10.02;100.00;98542.09;5055568;28;20185;-61
2023/01/22 09:13:32;;;;;;;85.18;48.45;;;;;;;10.01;100.00;98525.78;5055582;28;20182;-62
2023/01/22 09:15:58;;;;;;;86.25;49.72;;;;;;;10.20;100.00;98548.72;5055503;28;20185;-62
2023/01/22 09:18:24;;;;;;;76.45;48.17;;;;;;;10.55;100.00;98583.44;5055779;28;20332;-61
2023/01/22 09:20:49;;;;;;;80.85;48.53;;;;;;;10.41;100.00;98544.72;5055378;28;20293;-63
2023/01/22 09:23:15;;;;;;;73.60;44.97;;;;;;;10.76;100.00;98585.47;5055382;28;20629;-62
2023/01/22 09:25:41;;;;;;;55.92;35.58;;;;;;;10.67;100.00;98549.00;5055345;28;20188;-61
2023/01/22 09:28:08;;;;;;;55.20;34.55;;;;;;;11.08;100.00;98591.91;5055593;28;20208;-62
2023/01/22 09:30:34;;;;;;;44.90;30.02;;;;;;;11.20;100.00;98595.44;5055261;28;20178;-62
2023/01/22 09:32:59;;;;;;;46.42;27.73;;;;;;;11.18;100.00;98582.59;5055483;28;20246;-63
2023/01/22 09:35:26;;;;;;;41.75;26.52;;;;;;;11.03;100.00;98562.09;5055455;28;20547;-62
2023/01/22 09:37:51;;;;;;;40.25;25.30;;;;;;;11.05;100.00;98575.75;5055563;28;20197;-61
2023/01/22 09:40:30;;;;;;;42.88;27.23;;;;;;;11.21;100.00;98600.47;5055859;28;20331;-62
2023/01/22 09:43:14;;;;;;;81.25;45.70;;;;;;;11.05;100.00;98567.97;5055571;28;20201;-61
2023/01/22 09:45:40;;;;;;;58.80;32.05;;;;;;;11.04;100.00;98564.53;5054730;28;20174;-62
2023/01/22 09:48:16;;;;;;;34.20;20.95;;;;;;;11.36;100.00;98606.38;5054916;28;20703;-64
2023/01/22 09:50:44;;;;;;;29.88;19.45;;;;;;;11.10;100.00;98578.84;5073028;28;20650;-62
2023/01/22 09:53:17;;;;;;;35.78;20.55;;;;;;;10.97;100.00;98562.50;5073127;28;20201;-63
2023/01/22 09:55:47;;;;;;;34.47;20.80;;;;;;;11.12;100.00;98585.59;5072711;28;20193;-63
2023/01/22 09:58:23;;;;;;;29.30;18.95;;;;;;;11.32;100.00;98598.00;5073000;28;20181;-63
2023/01/22 10:00:56;;;;;;;28.42;16.98;;;;;;;11.27;100.00;98592.28;5072708;28;20204;-63
2023/01/22 10:03:35;;;;;;;31.45;19.17;;;;;;;11.29;100.00;98585.28;5072459;28;20172;-63
2023/01/22 10:06:08;;;;;;;47.53;25.50;;;;;;;11.41;100.00;98583.59;5072489;28;20204;-61
2023/01/22 10:08:45;;;;;;;45.40;24.17;;;;;;;11.50;100.00;98588.94;5073036;28;20259;-61
2023/01/22 10:11:10;;;;;;;34.05;19.08;;;;;;;11.00;100.00;98492.38;5072329;28;20279;-61
2023/01/22 10:13:37;;;;;;;30.15;18.70;;;;;;;11.56;100.00;98579.94;5072988;28;20269;-62
2023/01/22 10:16:04;;;;;;;32.85;19.95;;;;;;;11.53;100.00;98568.03;5072598;28;20208;-61
2023/01/22 10:18:39;;;;;;;28.05;17.63;;;;;;;11.66;100.00;98588.75;5071981;28;20181;-61
2023/01/22 10:21:13;;;;;;;32.05;19.15;;;;;;;11.38;100.00;98539.78;5067465;28;20220;-62
2023/01/22 10:23:39;;;;;;;25.08;18.35;;;;;;;11.43;100.00;98541.09;5054659;28;20291;-62
2023/01/22 10:26:28;;;;;;;119.60;53.33;;;;;;;11.72;100.00;98583.16;5054245;28;20697;-61
2023/01/22 10:28:56;;;;;;;93.95;42.38;;;;;;;11.43;100.00;98527.34;5054818;28;20174;-61
2023/01/22 10:31:31;;;;;;;115.57;50.80;;;;;;;11.80;100.00;98583.44;5054324;28;20239;-61
2023/01/22 10:34:26;;;;;;;45.20;23.92;;;;;;;11.60;100.00;98542.53;5054068;28;20232;-61
2023/01/22 10:36:53;;;;;;;25.92;15.82;;;;;;;11.91;100.00;98593.88;5054072;28;20216;-62
2023/01/22 10:39:22;;;;;;;24.15;15.63;;;;;;;11.60;100.00;98537.34;5054005;28;20251;-62
2023/01/22 10:41:48;;;;;;;31.67;19.73;;;;;;;11.59;100.00;98538.28;5053808;28;20198;-62
2023/01/22 10:44:18;;;;;;;32.95;19.73;;;;;;;11.94;100.00;98588.47;5054445;28;20235;-62
2023/01/22 10:46:48;;;;;;;26.88;16.05;;;;;;;11.62;100.00;98535.50;5053859;28;20178;-62
2023/01/22 10:49:25;;;;;;;36.85;24.00;;;;;;;11.65;100.00;98530.91;5053770;28;20182;-62
2023/01/22 10:51:54;;;;;;;37.83;24.10;;;;;;;12.02;100.00;98570.59;5054453;28;20169;-62
2023/01/22 10:54:42;;;;;;;28.73;19.60;;;;;;;12.00;100.00;98567.28;5053693;28;20182;-62
2023/01/22 10:57:24;;;;;;;25.80;16.95;;;;;;;11.80;100.00;98523.81;5054276;28;20240;-62
2023/01/22 11:00:12;;;;;;;28.13;18.30;;;;;;;12.25;100.00;98567.19;5053829;28;20231;-62
2023/01/22 11:02:41;;;;;;;25.77;16.85;;;;;;;12.34;100.00;98569.09;5031740;28;20214;-62
2023/01/22 11:05:22;;;;;;;28.92;16.92;;;;;;;12.25;100.00;98562.00;5031511;28;20203;-62
2023/01/22 11:07:52;;;;;;;29.08;17.92;;;;;;;12.50;100.00;98587.81;5032118;28;20186;-62
2023/01/22 11:10:24;;;;;;;32.15;19.48;;;;;;;12.59;100.00;98577.56;5031416;28;20618;-61
2023/01/22 11:12:56;;;;;;;28.52;18.40;;;;;;;12.44;100.00;98546.72;5031288;28;20187;-61
2023/01/22 11:15:39;;;;;;;26.48;18.15;;;;;;;12.68;100.00;98597.66;5031061;28;20178;-62
2023/01/22 11:18:06;;;;;;;104.50;51.65;;;;;;;12.58;100.00;98595.84;5031160;28;20202;-62
2023/01/22 11:20:43;;;;;;;54.67;30.50;;;;;;;12.31;100.00;98561.53;5030418;28;20267;-62
2023/01/22 11:23:09;;;;;;;37.55;22.38;;;;;;;12.47;100.00;98598.38;5031042;28;20657;-62
2023/01/22 11:26:17;;;;;;;43.75;23.02;;;;;;;12.33;100.00;98590.78;5030856;28;20284;-62
2023/01/22 11:28:52;;;;;;;23.95;14.95;;;;;;;12.34;100.00;98600.22;5030908;28;20183;-62